Worcester, United Kingdom
Current Conditions -  °F | °C
As of 2:20 PM on Friday 19 Dec 2014 (Local Time) from EGBJ Reporting Station
Few Clouds Few Clouds  
Wind Chill: 50°   Ceiling: Unl
Heat Index: 50°   Visibility: 6mi
Dew Point: 37°   Wind: 9mph
Humidity: 62%   Direction: 250°WSW
Pressure: 30.03"   Gusts: NA
Location:  52.19°N, 2.22°W
Report Text: EGBJ 191420Z 25008KT 190V270 9999 FEW030 10/03 Q1017
Loading
Personal Weather Stations






























Interactive Weather Map New forecast layout! Learn more

10-Day Weather Forecast

Advertisements
Track Severe Weather on mobile